Philadelphia, Pennsylvania
Traffic Map
Current Weather Conditions
Philadelphia, Pennsylvania
Scattered Clouds
Scattered Clouds
15°
Feels Like: 15°
Wind Chill: 15° Ceiling: Unl
Heat Index: 15° Visibility: 10mi
Dew Point: Wind: 22mph
Humidity: 46% Direction: 340° (NNW)
Pressure: 29.85in Gusts: 31mph
Raw Report DataKPHL 281354Z 34019G27KT 10SM SCT045 15/03 A2985 RMK AO2 PK WND 01028/1330 SLP109 T01500033
Traffic Incident Summary
Active as of:
Severity:
Category:
InformationThere was an issue retrieving the traffic information for this location. Please try a different location or try again shortly.
Advertisements
Track Severe Weather on mobile